Time;durP1;ratioP1;P1;durP2;ratioP2;P2;SDS_P1;SDS_P2;PMS_P1;PMS_P2;Temp;Humidity;BMP_temperature;BMP_pressure;BME280_temperature;BME280_humidity;BME280_pressure;Samples;Min_cycle;Max_cycle;Signal;HPM_P1;HPM_P2
2022/12/26 00:02:08;;;;;;;74.70;39.92;;;;;;;2.34;79.06;97344.55;1788110;79;28167;-72
2022/12/26 00:04:34;;;;;;;75.52;40.78;;;;;;;2.33;79.10;97350.38;1788126;79;25773;-71
2022/12/26 00:07:01;;;;;;;82.57;39.50;;;;;;;2.36;79.10;97353.22;1788078;79;25718;-72
2022/12/26 00:09:27;;;;;;;82.10;40.03;;;;;;;2.39;79.10;97364.40;1788076;79;26414;-73
2022/12/26 00:11:54;;;;;;;101.95;45.75;;;;;;;2.41;79.10;97364.24;1787826;79;25891;-72
2022/12/26 00:14:21;;;;;;;77.27;39.45;;;;;;;2.43;79.14;97369.72;1788082;79;28189;-71
2022/12/26 00:16:47;;;;;;;63.90;34.75;;;;;;;2.42;79.13;97350.73;1787984;79;26263;-72
2022/12/26 00:19:14;;;;;;;64.47;35.43;;;;;;;2.44;79.11;97356.73;1788123;79;25695;-72
2022/12/26 00:21:41;;;;;;;65.17;35.33;;;;;;;2.45;79.21;97355.75;1788057;79;25742;-72
2022/12/26 00:24:10;;;;;;;65.28;34.83;;;;;;;2.46;79.20;97362.75;1788147;79;25686;-74
2022/12/26 00:26:37;;;;;;;63.17;35.15;;;;;;;2.46;79.23;97366.74;1777780;79;28263;-72
2022/12/26 00:29:05;;;;;;;66.62;35.92;;;;;;;2.44;79.26;97371.39;1756636;78;25670;-72
2022/12/26 00:31:34;;;;;;;61.15;32.25;;;;;;;2.43;79.28;97356.90;1756844;79;25720;-72
2022/12/26 00:34:01;;;;;;;68.65;35.13;;;;;;;2.41;79.32;97354.42;1756670;79;26523;-72
2022/12/26 00:36:31;;;;;;;57.15;29.10;;;;;;;2.40;79.39;97344.77;1760529;79;25774;-73
2022/12/26 00:39:00;;;;;;;48.40;27.37;;;;;;;2.40;79.50;97326.11;1788032;79;27378;-72
2022/12/26 00:41:27;;;;;;;50.75;27.60;;;;;;;2.43;79.61;97328.42;1787751;79;25660;-73
2022/12/26 00:43:55;;;;;;;50.83;26.73;;;;;;;2.48;79.66;97323.46;1788078;79;25662;-72
2022/12/26 00:46:22;;;;;;;48.15;24.98;;;;;;;2.52;79.64;97315.48;1787763;79;25724;-73
2022/12/26 00:48:48;;;;;;;52.85;25.17;;;;;;;2.53;79.67;97321.16;1788016;79;25795;-73
2022/12/26 00:51:15;;;;;;;47.20;25.12;;;;;;;2.57;79.67;97318.97;1787595;79;27388;-71
2022/12/26 00:53:42;;;;;;;41.92;21.42;;;;;;;2.59;79.63;97328.14;1787951;79;25801;-72
2022/12/26 00:56:09;;;;;;;38.78;21.33;;;;;;;2.58;79.68;97314.48;1787909;79;25732;-73
2022/12/26 00:58:36;;;;;;;39.75;19.70;;;;;;;2.56;79.72;97316.47;1787983;79;26442;-71
2022/12/26 01:01:19;;;;;;;37.70;20.82;;;;;;;2.57;79.80;97316.31;1788029;80;25696;-72
2022/12/26 01:03:47;;;;;;;37.35;20.95;;;;;;;2.59;79.83;97313.48;1787660;79;27413;-70
2022/12/26 01:06:15;;;;;;;35.10;19.55;;;;;;;2.62;79.93;97313.16;1787625;79;25777;-73
2022/12/26 01:08:42;;;;;;;35.00;17.32;;;;;;;2.67;79.99;97314.33;1787993;79;25240;-72
2022/12/26 01:11:12;;;;;;;33.50;17.23;;;;;;;2.69;79.98;97312.83;1787614;79;26525;-72
2022/12/26 01:13:39;;;;;;;35.60;17.10;;;;;;;2.71;79.99;97298.84;1788001;79;26240;-74
2022/12/26 01:16:06;;;;;;;29.77;16.65;;;;;;;2.75;79.97;97293.03;1787871;79;27425;-71
2022/12/26 01:18:35;;;;;;;30.45;16.35;;;;;;;2.78;79.94;97290.51;1788038;79;25668;-72
2022/12/26 01:21:06;;;;;;;30.32;17.10;;;;;;;2.79;79.89;97286.84;1787967;79;25308;-74
2022/12/26 01:23:33;;;;;;;35.48;16.48;;;;;;;2.80;79.85;97297.84;1787958;79;27106;-72
2022/12/26 01:25:59;;;;;;;33.85;18.07;;;;;;;2.79;79.87;97298.84;1788665;79;25642;-72
2022/12/26 01:28:26;;;;;;;31.60;16.67;;;;;;;2.80;79.94;97297.35;1788023;79;27367;-72
2022/12/26 01:30:53;;;;;;;33.98;17.95;;;;;;;2.81;79.97;97295.02;1787946;79;25745;-72
2022/12/26 01:33:20;;;;;;;35.83;18.15;;;;;;;2.80;80.00;97309.34;1788070;79;25737;-71
2022/12/26 01:35:52;;;;;;;32.88;17.20;;;;;;;2.84;80.07;97305.86;1771248;79;25656;-72
2022/12/26 01:38:20;;;;;;;31.73;18.00;;;;;;;2.86;80.06;97298.53;1784538;79;25709;-73
2022/12/26 01:41:15;;;;;;;35.45;18.35;;;;;;;2.87;80.06;97301.53;1787869;79;28195;-72
2022/12/26 01:43:17;;;;;;;33.55;17.60;;;;;;;2.88;80.04;97288.55;1783201;79;25724;-72
2022/12/26 01:45:50;;;;;;;34.10;16.75;;;;;;;2.89;80.04;97291.55;1788164;79;25759;-74
2022/12/26 01:48:21;;;;;;;31.95;16.70;;;;;;;2.93;80.11;97278.69;1783881;79;26746;-72
2022/12/26 01:50:58;;;;;;;34.55;17.00;;;;;;;2.91;80.13;97276.19;1787806;79;25681;-74
2022/12/26 01:53:42;;;;;;;29.18;15.03;;;;;;;2.94;80.27;97276.36;1785730;79;27401;-72
2022/12/26 01:56:20;;;;;;;34.23;15.50;;;;;;;2.96;80.34;97278.37;1771814;80;25743;-72
2022/12/26 01:59:04;;;;;;;28.00;13.40;;;;;;;2.97;80.42;97276.88;1702565;83;25732;-74
2022/12/26 02:01:34;;;;;;;27.75;14.45;;;;;;;3.03;80.51;97274.02;1622716;88;26560;-74
2022/12/26 02:06:52;;;;;;;29.10;16.00;;;;;;;3.10;80.62;97269.20;1622814;88;27490;-72
2022/12/26 02:09:19;;;;;;;30.25;15.65;;;;;;;3.13;80.68;97279.55;1622896;88;25841;-71
2022/12/26 02:11:57;;;;;;;29.60;15.50;;;;;;;3.19;80.75;97268.69;1622954;88;25762;-72
2022/12/26 02:14:24;;;;;;;31.25;15.63;;;;;;;3.21;80.79;97268.86;1620948;88;25907;-72
2022/12/26 02:16:51;;;;;;;31.35;15.08;;;;;;;3.25;80.82;97277.36;1623107;88;25858;-74
2022/12/26 02:19:44;;;;;;;29.85;14.30;;;;;;;3.30;80.79;97275.50;1623088;88;27435;-72
2022/12/26 02:22:25;;;;;;;32.38;15.50;;;;;;;3.36;80.87;97272.17;1545671;92;25511;-73
2022/12/26 02:25:21;;;;;;;29.15;15.70;;;;;;;3.43;80.80;97271.81;1543492;92;25818;-72
2022/12/26 02:28:04;;;;;;;29.72;15.13;;;;;;;3.47;80.71;97274.48;1545671;92;25832;-72
2022/12/26 02:30:42;;;;;;;31.48;15.20;;;;;;;3.49;80.68;97264.48;1543487;92;25784;-72
2022/12/26 02:33:54;;;;;;;31.05;16.05;;;;;;;3.53;80.72;97265.78;1528927;93;28347;-73
2022/12/26 02:36:49;;;;;;;25.62;13.13;;;;;;;3.56;80.69;97276.12;1548216;92;25909;-72
2022/12/26 02:39:53;;;;;;;23.38;13.45;;;;;;;3.61;80.81;97275.95;1464177;96;25868;-72
2022/12/26 02:42:46;;;;;;;24.40;13.95;;;;;;;3.68;80.88;97278.77;1431886;99;26497;-71
2022/12/26 02:48:46;;;;;;;22.52;12.23;;;;;;;3.77;81.14;97262.20;1432671;98;28175;-71
2022/12/26 03:17:18;;;;;;;20.10;12.20;;;;;;;4.32;80.97;97212.70;1393468;99;25865;-71
2022/12/26 03:18:05;;;;;;;21.30;12.30;;;;;;;4.33;80.94;97207.19;1464833;96;27635;-71
2022/12/26 03:20:35;;;;;;;19.90;11.75;;;;;;;4.31;80.92;97194.50;1488534;96;25862;-71
2022/12/26 03:23:12;;;;;;;18.25;10.05;;;;;;;4.34;81.04;97194.66;1487325;96;25890;-73
2022/12/26 03:28:37;;;;;;;14.70;8.85;;;;;;;4.42;81.15;97178.56;1518664;94;25825;-71
2022/12/26 03:31:08;;;;;;;14.55;9.05;;;;;;;4.47;81.23;97176.16;1518703;94;27411;-73
2022/12/26 03:37:02;;;;;;;14.78;8.25;;;;;;;4.58;81.33;97160.23;1420978;100;25909;-73
2022/12/26 04:19:46;;;;;;;11.85;7.35;;;;;;;5.94;81.22;97161.59;1317072;108;25927;-72
2022/12/26 04:45:12;;;;;;;10.08;7.60;;;;;;;6.28;80.66;97136.02;1325957;108;27577;-72
2022/12/26 04:50:10;;;;;;;9.38;6.53;;;;;;;6.29;80.52;97126.92;1326927;107;25974;-72
2022/12/26 04:50:11;;;;;;;10.72;6.95;;;;;;;6.32;80.46;97118.51;1332214;107;25861;-73
2022/12/26 04:52:58;;;;;;;12.70;7.80;;;;;;;6.35;80.40;97119.47;1337858;107;25932;-73
2022/12/26 04:55:29;;;;;;;10.35;8.33;;;;;;;6.37;80.28;97118.78;1338135;107;25845;-72
2022/12/26 04:57:57;;;;;;;12.55;8.45;;;;;;;6.36;80.17;97114.44;1345384;106;27460;-71
2022/12/26 05:00:26;;;;;;;9.55;7.20;;;;;;;6.36;80.17;97110.41;1322392;107;25925;-72
2022/12/26 05:11:24;;;;;;;10.50;6.90;;;;;;;6.32;79.87;97107.78;1358197;104;27570;-72
2022/12/26 05:13:53;;;;;;;9.95;7.40;;;;;;;6.31;79.98;97108.30;1371242;103;25814;-71
2022/12/26 05:30:07;;;;;;;10.65;7.40;;;;;;;6.41;79.87;97116.84;1393216;96;25812;-71
2022/12/26 05:35:19;;;;;;;13.60;8.00;;;;;;;6.55;80.08;97112.43;1463677;96;26122;-72
2022/12/26 05:37:46;;;;;;;10.65;7.37;;;;;;;6.59;79.94;97115.05;1463882;96;27612;-72
2022/12/26 05:40:12;;;;;;;10.88;8.15;;;;;;;6.60;79.82;97104.65;1463763;96;25799;-72
2022/12/26 05:42:39;;;;;;;11.83;7.92;;;;;;;6.61;79.72;97111.67;1463859;96;25880;-74
2022/12/26 05:45:07;;;;;;;11.20;7.62;;;;;;;6.63;79.67;97104.27;1463913;96;25928;-72
2022/12/26 05:47:34;;;;;;;10.60;7.45;;;;;;;6.65;79.66;97095.48;1463754;96;25932;-72
2022/12/26 05:50:01;;;;;;;9.35;7.55;;;;;;;6.69;79.73;97099.45;1463409;96;28082;-73
2022/12/26 05:52:28;;;;;;;8.40;6.65;;;;;;;6.74;79.74;97107.77;1462915;96;25919;-72
2022/12/26 05:54:55;;;;;;;11.75;7.53;;;;;;;6.80;79.68;97106.14;1491650;92;25894;-72
2022/12/26 05:57:21;;;;;;;13.20;7.53;;;;;;;6.90;79.74;97114.67;1575142;89;26589;-72
2022/12/26 05:59:48;;;;;;;11.90;6.67;;;;;;;6.96;79.56;97127.32;1569359;89;25846;-72
2022/12/26 06:02:15;;;;;;;8.83;6.95;;;;;;;6.98;79.42;97127.13;1647473;84;27619;-72
2022/12/26 06:04:42;;;;;;;10.80;7.65;;;;;;;6.98;79.29;97121.77;1635965;84;25766;-71
2022/12/26 06:07:08;;;;;;;10.20;7.45;;;;;;;6.98;79.20;97117.22;1636111;84;25804;-72
2022/12/26 06:09:35;;;;;;;9.43;6.90;;;;;;;6.99;79.10;97113.52;1636215;84;26465;-72
2022/12/26 06:12:02;;;;;;;12.28;7.37;;;;;;;6.98;79.07;97117.73;1650984;84;25821;-72
2022/12/26 06:14:28;;;;;;;17.07;8.70;;;;;;;7.03;79.14;97126.02;1626458;85;27370;-71
2022/12/26 06:16:55;;;;;;;13.00;8.08;;;;;;;7.07;79.06;97124.61;1634807;85;25551;-72
2022/12/26 06:19:22;;;;;;;11.10;7.42;;;;;;;7.07;78.94;97134.00;1618783;85;25473;-72
2022/12/26 06:21:48;;;;;;;11.35;7.35;;;;;;;7.09;78.92;97134.13;1637845;85;25747;-73
2022/12/26 06:24:15;;;;;;;8.60;6.80;;;;;;;7.13;78.98;97139.40;1700455;82;25807;-72
2022/12/26 06:26:42;;;;;;;10.63;8.10;;;;;;;7.17;78.92;97137.99;1750405;79;27449;-72
2022/12/26 06:29:09;;;;;;;10.08;7.40;;;;;;;7.18;78.79;97145.02;1730231;79;25763;-72
2022/12/26 06:31:35;;;;;;;13.20;7.33;;;;;;;7.16;78.70;97143.55;1730391;79;25692;-73
2022/12/26 06:34:02;;;;;;;33.30;18.15;;;;;;;7.19;78.87;97157.42;1730305;80;26497;-73
2022/12/26 06:36:29;;;;;;;14.65;8.95;;;;;;;7.25;78.77;97159.81;1730302;79;25724;-72
2022/12/26 06:38:56;;;;;;;13.65;7.72;;;;;;;7.24;78.63;97158.19;1748608;79;27371;-71
2022/12/26 06:41:24;;;;;;;8.90;7.05;;;;;;;7.22;78.55;97166.94;1764965;79;26036;-72
2022/12/26 06:43:51;;;;;;;9.40;6.60;;;;;;;7.22;78.58;97162.41;1742965;79;25730;-73
2022/12/26 06:46:22;;;;;;;9.28;7.20;;;;;;;7.26;78.61;97164.67;1754340;80;26537;-72
2022/12/26 06:48:49;;;;;;;7.87;6.40;;;;;;;7.26;78.64;97166.84;1730326;79;25703;-73
2022/12/26 06:51:27;;;;;;;11.20;6.45;;;;;;;7.32;78.65;97163.39;1734739;80;28238;-72
2022/12/26 06:53:55;;;;;;;9.13;6.55;;;;;;;7.37;78.68;97168.98;1736664;80;25728;-73
2022/12/26 06:56:25;;;;;;;10.43;7.40;;;;;;;7.45;78.67;97164.82;1736512;80;25305;-72
2022/12/26 06:58:57;;;;;;;11.35;9.15;;;;;;;7.51;78.54;97165.87;1736588;80;25673;-73
2022/12/26 07:01:26;;;;;;;12.47;8.60;;;;;;;7.52;78.39;97163.50;1768909;79;25815;-71
2022/12/26 07:03:54;;;;;;;9.70;7.33;;;;;;;7.52;78.24;97161.65;1767220;80;27440;-72
2022/12/26 07:06:25;;;;;;;8.73;6.67;;;;;;;7.53;78.24;97163.31;1767066;80;25437;-73
2022/12/26 07:08:56;;;;;;;11.93;8.05;;;;;;;7.56;78.23;97175.01;1789084;79;25709;-72
2022/12/26 07:11:27;;;;;;;11.15;8.03;;;;;;;7.58;78.26;97186.39;1788868;80;25675;-72
2022/12/26 07:13:54;;;;;;;10.95;7.58;;;;;;;7.62;78.29;97185.97;1788850;80;25248;-73
2022/12/26 07:16:23;;;;;;;11.25;7.53;;;;;;;7.67;78.27;97195.11;1788774;80;27406;-74
2022/12/26 07:18:52;;;;;;;10.55;8.25;;;;;;;7.67;78.05;97195.63;1788771;80;25673;-72
2022/12/26 07:21:19;;;;;;;12.90;8.73;;;;;;;7.64;77.90;97196.01;1788744;79;25758;-72
2022/12/26 07:23:46;;;;;;;16.60;11.12;;;;;;;7.67;77.97;97198.31;1788788;80;25862;-73
2022/12/26 07:26:13;;;;;;;15.35;10.58;;;;;;;7.72;77.85;97202.59;1788053;80;25793;-72
2022/12/26 07:28:40;;;;;;;19.87;13.28;;;;;;;7.74;77.81;97212.59;1788657;80;27401;-73
2022/12/26 07:31:07;;;;;;;23.10;14.60;;;;;;;7.74;77.71;97224.69;1788795;80;25765;-74
2022/12/26 07:33:33;;;;;;;26.57;15.50;;;;;;;7.74;77.64;97219.31;1788756;80;25726;-71
2022/12/26 07:36:03;;;;;;;30.65;19.35;;;;;;;7.72;77.56;97226.77;1788563;80;26274;-74
2022/12/26 07:38:31;;;;;;;27.73;18.45;;;;;;;7.71;77.53;97222.42;1788895;80;25660;-72
2022/12/26 07:41:56;;;;;;;27.90;18.00;;;;;;;7.69;77.50;97221.78;1788384;80;28261;-72
2022/12/26 07:43:27;;;;;;;21.23;13.45;;;;;;;7.70;77.47;97223.44;1784600;80;25658;-72
2022/12/26 07:45:57;;;;;;;12.10;9.33;;;;;;;7.71;77.55;97217.05;1788836;79;26143;-71
2022/12/26 07:48:24;;;;;;;12.03;7.78;;;;;;;7.73;77.60;97212.31;1788495;79;25848;-72
2022/12/26 07:50:51;;;;;;;15.43;9.65;;;;;;;7.78;77.71;97208.49;1788606;79;25754;-72
2022/12/26 07:53:17;;;;;;;14.53;9.80;;;;;;;7.85;77.84;97206.14;1788510;80;27359;-72
2022/12/26 07:55:44;;;;;;;11.00;7.75;;;;;;;8.02;78.73;97199.10;1788677;80;25718;-72
2022/12/26 07:58:10;;;;;;;10.28;8.28;;;;;;;8.19;78.41;97195.87;1788975;80;25647;-72
2022/12/26 08:00:37;;;;;;;11.33;8.55;;;;;;;8.30;78.02;97204.70;1789071;80;25727;-72
2022/12/26 08:03:04;;;;;;;11.40;7.60;;;;;;;8.40;77.88;97198.97;1777727;80;25852;-72
2022/12/26 08:05:31;;;;;;;14.55;8.60;;;;;;;8.52;77.73;97198.69;1778285;80;26878;-73
2022/12/26 08:07:57;;;;;;;11.20;7.95;;;;;;;8.63;77.57;97201.30;1788769;80;26613;-72
2022/12/26 08:10:24;;;;;;;12.82;7.85;;;;;;;8.75;77.53;97198.83;1788882;80;25755;-73
2022/12/26 08:12:51;;;;;;;11.97;8.70;;;;;;;8.87;77.38;97195.33;1788911;80;25741;-73
2022/12/26 08:15:17;;;;;;;10.68;7.83;;;;;;;8.97;77.22;97203.83;1788731;80;25741;-74
2022/12/26 08:17:44;;;;;;;13.75;8.58;;;;;;;9.06;77.05;97199.61;1788859;80;27364;-72
2022/12/26 08:20:11;;;;;;;15.13;8.80;;;;;;;9.13;76.91;97211.20;1788653;80;25787;-74
2022/12/26 08:22:37;;;;;;;10.82;7.70;;;;;;;9.19;76.78;97202.27;1788629;80;25754;-72
2022/12/26 08:25:06;;;;;;;10.93;7.92;;;;;;;9.24;76.68;97206.02;1788919;79;26471;-73
2022/12/26 08:27:33;;;;;;;11.85;8.98;;;;;;;9.28;76.54;97209.13;1788233;80;25749;-74
2022/12/26 08:30:00;;;;;;;12.95;8.55;;;;;;;9.31;76.41;97210.03;1788686;80;27398;-73
2022/12/26 08:32:27;;;;;;;15.38;9.10;;;;;;;9.34;76.21;97221.75;1788868;80;25475;-74
2022/12/26 08:34:54;;;;;;;12.40;8.25;;;;;;;9.37;76.10;97222.69;1788819;79;25769;-71
2022/12/26 08:37:22;;;;;;;15.83;9.00;;;;;;;9.38;75.94;97225.18;1788812;80;25671;-72
2022/12/26 08:39:53;;;;;;;11.43;8.45;;;;;;;9.42;75.94;97229.61;1788882;80;25695;-72
2022/12/26 08:42:21;;;;;;;12.23;8.05;;;;;;;9.47;76.08;97229.83;1788493;80;27495;-72
2022/12/26 08:44:48;;;;;;;13.62;8.88;;;;;;;9.50;75.97;97220.50;1788451;80;25665;-74
2022/12/26 08:47:15;;;;;;;12.13;8.35;;;;;;;9.50;75.64;97225.38;1788745;80;25805;-73
2022/12/26 08:49:43;;;;;;;13.05;8.88;;;;;;;9.50;75.48;97226.72;1788685;80;25742;-74
2022/12/26 08:52:09;;;;;;;12.05;8.93;;;;;;;9.51;75.46;97235.12;1787682;79;25829;-73
2022/12/26 08:54:36;;;;;;;11.68;8.80;;;;;;;9.52;75.38;97230.05;1787801;79;28291;-72
2022/12/26 08:57:03;;;;;;;15.20;9.48;;;;;;;9.53;75.24;97226.83;1787728;79;26240;-74
2022/12/26 08:59:29;;;;;;;13.05;9.10;;;;;;;9.55;75.21;97235.51;1787387;79;25745;-74
2022/12/26 09:01:56;;;;;;;13.32;9.20;;;;;;;9.56;75.17;97233.13;1787193;79;25660;-72
2022/12/26 09:04:23;;;;;;;12.20;9.50;;;;;;;9.57;75.12;97228.88;1765806;79;25864;-73
2022/12/26 09:06:49;;;;;;;12.50;9.95;;;;;;;9.58;75.10;97238.62;1766928;79;28157;-72
2022/12/26 09:09:16;;;;;;;10.70;8.23;;;;;;;9.60;74.98;97228.47;1779924;79;25718;-72
2022/12/26 09:11:42;;;;;;;13.25;8.70;;;;;;;9.60;74.99;97233.86;1787979;79;25675;-73
2022/12/26 09:14:10;;;;;;;11.70;8.80;;;;;;;9.60;74.98;97228.47;1775703;79;25830;-72
2022/12/26 09:16:44;;;;;;;11.60;8.55;;;;;;;9.61;74.91;97224.73;1787038;79;25904;-73
2022/12/26 09:19:17;;;;;;;13.88;9.33;;;;;;;9.61;74.84;97223.39;1784499;80;27362;-73
2022/12/26 09:21:45;;;;;;;13.20;8.85;;;;;;;9.62;74.76;97231.79;1782397;79;25685;-73
2022/12/26 09:24:16;;;;;;;11.35;8.48;;;;;;;9.63;74.72;97228.06;1786430;79;25801;-73
2022/12/26 09:26:43;;;;;;;12.20;8.55;;;;;;;9.64;74.61;97235.63;1778187;79;26467;-72
2022/12/26 09:29:13;;;;;;;12.30;8.33;;;;;;;9.63;74.59;97233.45;1784893;78;25671;-74
2022/12/26 09:31:40;;;;;;;14.55;8.78;;;;;;;9.64;74.61;97241.84;1778471;79;28259;-74
2022/12/26 09:34:07;;;;;;;11.85;8.83;;;;;;;9.66;74.54;97233.00;1769928;78;25888;-74
2022/12/26 09:36:36;;;;;;;10.88;8.13;;;;;;;9.70;74.49;97226.17;1768968;78;25802;-73
2022/12/26 09:39:04;;;;;;;13.72;9.38;;;;;;;9.74;74.48;97216.63;1761187;78;25785;-75
2022/12/26 09:41:52;;;;;;;11.75;9.55;;;;;;;9.76;74.48;97212.38;1773747;78;25623;-73
2022/12/26 09:45:02;;;;;;;11.97;9.35;;;;;;;9.79;74.43;97215.16;1762813;79;27413;-74
2022/12/26 09:47:46;;;;;;;13.20;9.30;;;;;;;9.84;74.42;97208.62;1738833;80;25892;-74
2022/12/26 09:50:30;;;;;;;10.82;8.25;;;;;;;9.90;74.48;97225.31;1739364;80;25858;-74
2022/12/26 09:53:05;;;;;;;11.40;9.23;;;;;;;9.94;74.40;97218.44;1684066;84;26503;-75
2022/12/26 09:55:40;;;;;;;12.85;9.83;;;;;;;9.95;74.25;97222.28;1683190;83;25913;-74
2022/12/26 09:58:44;;;;;;;11.22;8.45;;;;;;;9.97;74.22;97223.42;1683500;83;28185;-74
2022/12/26 10:01:19;;;;;;;13.68;9.35;;;;;;;9.98;74.25;97215.64;1684072;84;25807;-74
2022/12/26 10:03:55;;;;;;;14.07;9.65;;;;;;;9.95;74.02;97210.66;1683735;84;25818;-75
2022/12/26 10:06:33;;;;;;;14.00;9.58;;;;;;;9.96;74.06;97209.63;1668325;85;25799;-74
2022/12/26 10:09:20;;;;;;;17.07;11.12;;;;;;;9.96;74.02;97207.75;1658034;85;25855;-74
2022/12/26 10:12:39;;;;;;;17.45;9.78;;;;;;;9.98;74.08;97211.08;1663457;85;28180;-74
2022/12/26 10:15:32;;;;;;;14.83;9.70;;;;;;;10.00;73.94;97209.52;1661772;85;25731;-73
2022/12/26 10:18:22;;;;;;;11.53;9.28;;;;;;;10.01;73.87;97229.53;1611016;87;25915;-75
2022/12/26 10:21:16;;;;;;;15.85;9.53;;;;;;;10.02;73.78;97214.19;1633541;87;25811;-73
2022/12/26 10:23:47;;;;;;;13.58;9.48;;;;;;;10.00;73.69;97219.78;1583252;88;25566;-72
2022/12/26 10:26:28;;;;;;;14.70;10.03;;;;;;;9.99;73.59;97214.08;1663601;84;27386;-74
2022/12/26 10:29:08;;;;;;;16.17;10.65;;;;;;;9.98;73.60;97201.64;1716936;83;25838;-74
2022/12/26 10:31:49;;;;;;;13.35;9.03;;;;;;;9.98;73.61;97204.85;1715922;83;25711;-73
2022/12/26 10:34:26;;;;;;;12.68;9.03;;;;;;;9.98;73.48;97212.94;1717151;83;26462;-73
2022/12/26 10:37:13;;;;;;;12.40;8.78;;;;;;;9.98;73.48;97222.38;1717437;83;25831;-73
2022/12/26 10:39:48;;;;;;;11.50;8.25;;;;;;;9.98;73.46;97219.69;1715453;83;27381;-73
2022/12/26 10:42:29;;;;;;;12.63;9.05;;;;;;;9.97;73.38;97216.67;1717138;83;25715;-73
2022/12/26 10:44:57;;;;;;;15.15;10.05;;;;;;;9.97;73.36;97212.63;1715159;82;25846;-73
2022/12/26 10:47:41;;;;;;;12.25;9.63;;;;;;;9.97;73.33;97211.28;1722915;82;26884;-73
2022/12/26 10:50:18;;;;;;;11.80;8.95;;;;;;;9.97;73.36;97196.45;1723614;82;26193;-75
2022/12/26 10:52:45;;;;;;;14.23;8.85;;;;;;;9.98;73.37;97194.89;1724354;82;27386;-76
2022/12/26 10:55:18;;;;;;;13.45;8.68;;;;;;;10.03;73.33;97196.94;1726871;82;25797;-76
2022/12/26 10:57:51;;;;;;;11.12;8.05;;;;;;;10.05;73.27;97188.12;1724336;82;25805;-75
2022/12/26 11:00:26;;;;;;;12.37;8.65;;;;;;;10.07;73.23;97177.95;1719483;81;26543;-76
2022/12/26 11:03:12;;;;;;;11.63;9.10;;;;;;;10.09;73.21;97167.78;1645537;84;25852;-74
2022/12/26 11:05:51;;;;;;;11.63;8.98;;;;;;;10.14;73.22;97166.63;1649661;83;28332;-74
2022/12/26 11:08:49;;;;;;;13.25;9.50;;;;;;;10.16;73.16;97151.55;1640238;86;25921;-75
2022/12/26 11:11:26;;;;;;;14.18;10.58;;;;;;;10.16;73.08;97151.03;1644014;85;25819;-75
2022/12/26 11:13:56;;;;;;;15.38;10.72;;;;;;;10.19;73.14;97148.47;1613753;87;25817;-74
2022/12/26 11:16:36;;;;;;;14.93;9.85;;;;;;;10.21;73.15;97141.00;1539134;91;25821;-76
2022/12/26 11:19:04;;;;;;;15.58;10.23;;;;;;;10.23;73.12;97141.09;1537085;91;28315;-75
2022/12/26 11:21:32;;;;;;;15.05;9.63;;;;;;;10.28;73.13;97148.00;1539013;91;25791;-77
2022/12/26 11:24:19;;;;;;;13.05;9.40;;;;;;;10.32;73.06;97138.44;1538510;91;25952;-75
2022/12/26 11:26:46;;;;;;;14.13;9.70;;;;;;;10.36;73.02;97139.67;1540224;91;25682;-74
2022/12/26 11:29:23;;;;;;;12.55;9.00;;;;;;;10.43;73.01;97149.89;1538548;91;25989;-75
2022/12/26 11:32:00;;;;;;;12.85;8.95;;;;;;;10.61;73.13;97153.22;1528954;92;28116;-75
2022/12/26 11:34:44;;;;;;;13.32;7.80;;;;;;;10.82;73.04;97142.06;1560451;91;25832;-75
2022/12/26 11:37:30;;;;;;;12.50;9.18;;;;;;;11.03;72.82;97142.20;1555117;91;25853;-75
2022/12/26 11:40:00;;;;;;;12.10;8.68;;;;;;;11.05;72.24;97146.86;1519403;92;26371;-76
2022/12/26 11:42:27;;;;;;;12.43;8.35;;;;;;;11.08;71.98;97147.78;1541861;92;25845;-74
2022/12/26 11:44:56;;;;;;;11.10;8.78;;;;;;;11.11;72.03;97144.61;1553924;91;27415;-75
2022/12/26 11:47:27;;;;;;;10.32;7.60;;;;;;;11.11;71.72;97145.14;1528744;92;25772;-75
2022/12/26 11:50:20;;;;;;;11.95;8.73;;;;;;;11.10;71.71;97156.50;1553649;91;25986;-75
2022/12/26 11:52:58;;;;;;;14.23;8.90;;;;;;;11.13;71.66;97151.16;1545242;91;25867;-75
2022/12/26 11:55:36;;;;;;;11.90;8.18;;;;;;;11.10;71.51;97159.72;1545556;91;25815;-75
2022/12/26 11:58:13;;;;;;;14.43;8.05;;;;;;;11.09;71.48;97148.09;1547722;91;27410;-75
2022/12/26 12:00:54;;;;;;;13.28;7.60;;;;;;;11.10;71.37;97142.98;1568455;90;25765;-75
2022/12/26 12:03:40;;;;;;;10.93;7.70;;;;;;;11.08;71.29;97145.08;1588835;88;25788;-75
2022/12/26 12:06:15;;;;;;;11.35;8.05;;;;;;;11.06;71.20;97126.91;1530971;92;26342;-75
2022/12/26 12:08:49;;;;;;;13.50;8.35;;;;;;;11.10;71.47;97137.59;1531091;92;25854;-76
2022/12/26 12:11:33;;;;;;;12.85;8.03;;;;;;;11.10;71.21;97129.48;1529357;93;28156;-75
2022/12/26 12:14:14;;;;;;;12.43;8.78;;;;;;;11.09;71.10;97118.89;1517367;93;25753;-75
2022/12/26 12:17:25;;;;;;;16.30;10.32;;;;;;;11.07;70.98;97125.04;1502372;93;25882;-75
2022/12/26 12:20:18;;;;;;;14.73;10.28;;;;;;;10.99;70.79;97109.12;1526783;91;26551;-75
2022/12/26 12:23:12;;;;;;;;;;;;;;;10.96;70.80;97107.68;1537125;91;25771;-75
2022/12/26 12:25:56;;;;;;;16.12;10.10;;;;;;;10.94;70.52;97108.42;1557631;91;27486;-75
2022/12/26 12:29:00;;;;;;;15.70;10.23;;;;;;;10.88;70.65;97110.64;1561849;90;25854;-76
2022/12/26 12:31:41;;;;;;;16.57;10.45;;;;;;;10.85;70.68;97108.40;1562056;91;25818;-75
2022/12/26 12:35:02;;;;;;;16.42;10.00;;;;;;;10.85;70.66;97100.83;1560067;90;26480;-73
2022/12/26 12:38:06;;;;;;;14.40;8.78;;;;;;;10.85;70.66;97107.05;1637208;83;25799;-74
2022/12/26 12:40:44;;;;;;;10.35;7.75;;;;;;;10.86;70.64;97104.66;1750764;81;26816;-73
2022/12/26 12:43:45;;;;;;;16.90;9.53;;;;;;;10.87;70.59;97105.48;1595880;85;25771;-73
2022/12/26 12:46:29;;;;;;;16.07;9.58;;;;;;;10.89;70.60;97096.09;1645787;85;25567;-73
2022/12/26 12:49:07;;;;;;;19.10;12.78;;;;;;;10.93;70.51;97089.21;1592859;88;25679;-74
2022/12/26 12:52:27;;;;;;;21.93;13.18;;;;;;;10.92;70.45;97084.86;1542975;92;26952;-74
2022/12/26 12:55:10;;;;;;;20.82;13.40;;;;;;;10.91;70.50;97076.45;1536388;92;27458;-73
2022/12/26 12:57:51;;;;;;;19.77;11.08;;;;;;;10.86;70.35;97072.25;1506786;93;25755;-73
2022/12/26 13:00:22;;;;;;;12.82;8.08;;;;;;;10.79;70.41;97078.22;1452101;97;25846;-74
2022/12/26 13:02:54;;;;;;;18.90;13.15;;;;;;;10.75;70.42;97085.09;1444112;97;25945;-72
2022/12/26 13:05:48;;;;;;;29.50;17.37;;;;;;;10.80;70.49;97087.97;1406755;100;25947;-73
2022/12/26 13:08:28;;;;;;;30.32;18.73;;;;;;;10.85;70.53;97092.20;1408743;100;28258;-73
2022/12/26 13:11:21;;;;;;;33.65;20.48;;;;;;;10.85;70.33;97090.84;1407865;100;26028;-75
2022/12/26 13:14:02;;;;;;;23.55;15.85;;;;;;;10.81;70.43;97086.92;1415701;100;25898;-73
2022/12/26 13:16:42;;;;;;;28.52;18.12;;;;;;;10.79;70.43;97079.56;1378319;103;25867;-75
2022/12/26 13:19:20;;;;;;;30.15;18.90;;;;;;;10.80;70.46;97073.13;1381723;102;25864;-75
2022/12/26 13:21:49;;;;;;;28.23;18.62;;;;;;;10.82;70.53;97080.48;1296859;109;27481;-74
2022/12/26 13:24:24;;;;;;;33.65;19.32;;;;;;;10.78;70.36;97072.51;1301215;109;25924;-74
2022/12/26 13:27:17;;;;;;;31.45;18.55;;;;;;;10.74;70.39;97084.81;1308323;106;25931;-75
2022/12/26 13:29:47;;;;;;;23.92;15.05;;;;;;;10.72;70.40;97077.45;1319903;107;25827;-74
2022/12/26 13:32:24;;;;;;;19.98;13.00;;;;;;;10.69;70.56;97079.23;1342133;106;25438;-75
2022/12/26 13:34:53;;;;;;;19.48;11.12;;;;;;;10.69;70.59;97090.03;1336302;106;27665;-74
2022/12/26 13:37:40;;;;;;;20.62;13.22;;;;;;;10.73;70.70;97101.54;1338461;105;26444;-74
2022/12/26 13:40:19;;;;;;;20.68;12.63;;;;;;;10.75;70.58;97093.19;1358260;103;25979;-76
2022/12/26 13:45:56;;;;;;;16.62;11.90;;;;;;;10.73;70.43;97107.46;1368853;104;26077;-74
2022/12/26 13:48:34;;;;;;;19.35;13.20;;;;;;;10.75;70.40;97101.29;1368958;104;27464;-74
2022/12/26 13:51:03;;;;;;;14.60;9.63;;;;;;;10.74;70.43;97094.27;1368763;104;25958;-74
2022/12/26 13:53:36;;;;;;;14.90;9.03;;;;;;;10.72;70.40;97108.50;1369074;104;25590;-73
2022/12/26 13:56:19;;;;;;;13.80;8.35;;;;;;;10.73;70.33;97106.94;1371737;101;25837;-74
2022/12/26 13:58:51;;;;;;;12.20;8.00;;;;;;;10.78;70.33;97123.81;1392544;102;25574;-74
2022/12/26 14:01:38;;;;;;;22.27;11.90;;;;;;;10.80;70.31;97119.02;1413774;100;27442;-76
2022/12/26 14:04:25;;;;;;;17.12;9.60;;;;;;;10.77;70.10;97116.75;1424991;99;26549;-73
2022/12/26 14:07:18;;;;;;;15.23;8.70;;;;;;;10.72;70.13;97097.70;1422496;99;25826;-74